Time;durP1;ratioP1;P1;durP2;ratioP2;P2;SDS_P1;SDS_P2;PMS_P1;PMS_P2;Temp;Humidity;BMP_temperature;BMP_pressure;BME280_temperature;BME280_humidity;BME280_pressure;Samples;Min_cycle;Max_cycle;Signal;HPM_P1;HPM_P2
2023/05/26 00:07:11;;;;;;;;;8.50;8.50;;;;;;;;2;261082207;261082207;-90
2023/05/26 00:15:05;;;;;;;;;4.50;4.50;;;;;;;;2;216068264;216068264;-91
2023/05/26 00:19:49;;;;;;;;;5.50;5.50;;;;;;;;162230;30;235419503;-91
2023/05/26 00:24:07;;;;;;;;;6.00;6.00;;;;;;;;325417;30;167903413;-91
2023/05/26 00:28:08;;;;;;;;;4.50;4.50;;;;;;;;2;241422796;241422796;-91
2023/05/26 00:35:05;;;;;;;;;7.00;6.33;;;;;;;;5136709;27;45423;-90
2023/05/26 00:37:30;;;;;;;;;8.67;6.67;;;;;;;;4824698;27;4475617;-90
2023/05/26 00:39:56;;;;;;;;;11.00;11.00;;;;;;;;4373625;27;15939514;-90
2023/05/26 00:42:21;;;;;;;;;10.33;9.00;;;;;;;;4935646;27;1965553;-90
2023/05/26 00:44:46;;;;;;;;;12.00;11.00;;;;;;;;4971872;27;1920886;-90
2023/05/26 00:47:11;;;;;;;;;12.00;9.33;;;;;;;;4814814;27;3594446;-89
2023/05/26 00:49:37;;;;;;;;;12.00;10.33;;;;;;;;4478418;27;10154215;-90
2023/05/26 00:52:02;;;;;;;;;11.00;9.00;;;;;;;;5098482;27;46708;-90
2023/05/26 00:54:28;;;;;;;;;7.60;7.00;;;;;;;;4992536;27;2149697;-90
2023/05/26 00:56:54;;;;;;;;;7.00;6.00;;;;;;;;5121323;27;44880;-90
2023/05/26 00:59:20;;;;;;;;;14.33;10.33;;;;;;;;5008682;27;2397095;-90
2023/05/26 01:01:45;;;;;;;;;9.33;9.00;;;;;;;;5099710;27;45341;-90
2023/05/26 01:04:11;;;;;;;;;9.33;9.33;;;;;;;;5103493;27;45389;-90
2023/05/26 01:06:37;;;;;;;;;10.33;10.00;;;;;;;;5109651;27;45225;-90
2023/05/26 01:09:03;;;;;;;;;10.33;9.00;;;;;;;;5118120;27;45218;-90
2023/05/26 01:11:34;;;;;;;;;6.67;6.67;;;;;;;;5109467;27;45289;-90
2023/05/26 01:14:19;;;;;;;;;12.33;10.33;;;;;;;;5105445;27;44981;-90
2023/05/26 01:16:47;;;;;;;;;6.33;6.33;;;;;;;;5090426;27;45291;-91
2023/05/26 01:19:13;;;;;;;;;10.00;10.00;;;;;;;;4879354;27;6143807;-90
2023/05/26 01:21:40;;;;;;;;;8.67;8.67;;;;;;;;5104752;27;45157;-91
2023/05/26 01:24:08;;;;;;;;;14.33;10.33;;;;;;;;5023723;27;2412899;-90
2023/05/26 01:26:52;;;;;;;;;10.50;9.00;;;;;;;;5119590;27;45328;-90
2023/05/26 01:29:18;;;;;;;;;9.00;9.00;;;;;;;;5105622;27;45508;-90
2023/05/26 01:31:51;;;;;;;;;6.50;6.50;;;;;;;;3731666;27;16415745;-90
2023/05/26 01:34:17;;;;;;;;;9.33;9.00;;;;;;;;4753527;27;8958503;-90
2023/05/26 01:36:42;;;;;;;;;6.50;6.50;;;;;;;;5097996;27;598331;-90
2023/05/26 01:39:08;;;;;;;;;8.00;8.00;;;;;;;;4800249;27;9001568;-90
2023/05/26 01:41:37;;;;;;;;;12.00;11.67;;;;;;;;5099632;27;52328;-90
2023/05/26 01:44:08;;;;;;;;;18.33;14.00;;;;;;;;5081646;27;376553;-89
2023/05/26 01:46:48;;;;;;;;;6.25;6.25;;;;;;;;4342725;27;10646955;-90
2023/05/26 01:49:14;;;;;;;;;13.50;11.50;;;;;;;;4528526;27;10497304;-90
2023/05/26 01:51:42;;;;;;;;;12.33;12.33;;;;;;;;5083677;27;45417;-90
2023/05/26 01:54:09;;;;;;;;;9.00;9.00;;;;;;;;5102983;27;45469;-90
2023/05/26 01:56:35;;;;;;;;;14.33;10.00;;;;;;;;5102310;27;46342;-90
2023/05/26 01:59:01;;;;;;;;;8.33;8.33;;;;;;;;5082558;27;144686;-89
2023/05/26 02:01:27;;;;;;;;;9.67;9.00;;;;;;;;4491157;27;12545103;-90
2023/05/26 02:03:52;;;;;;;;;7.67;7.67;;;;;;;;4753346;27;9426033;-90
2023/05/26 02:06:23;;;;;;;;;10.50;10.50;;;;;;;;2849365;27;56591517;-90
2023/05/26 02:08:50;;;;;;;;;12.00;9.00;;;;;;;;4592801;27;5599044;-90
2023/05/26 02:11:15;;;;;;;;;10.33;8.00;;;;;;;;5081780;27;45429;-90
2023/05/26 02:13:41;;;;;;;;;8.67;6.67;;;;;;;;5079474;28;45495;-90
2023/05/26 02:16:06;;;;;;;;;4.33;4.33;;;;;;;;4429302;27;13405302;-90
2023/05/26 02:18:31;;;;;;;;;9.00;9.00;;;;;;;;4234082;27;14848450;-90
2023/05/26 02:20:56;;;;;;;;;10.25;9.25;;;;;;;;4685176;27;8120253;-90
2023/05/26 02:23:22;;;;;;;;;15.00;13.00;;;;;;;;4995015;27;1390318;-90
2023/05/26 02:25:47;;;;;;;;;10.00;8.00;;;;;;;;4506003;27;11651009;-90
2023/05/26 02:28:12;;;;;;;;;9.00;8.50;;;;;;;;5081099;28;45493;-90
2023/05/26 02:30:37;;;;;;;;;11.80;10.80;;;;;;;;4855438;27;4406082;-90
2023/05/26 02:33:04;;;;;;;;;10.33;10.00;;;;;;;;4847444;27;3429510;-90
2023/05/26 02:35:29;;;;;;;;;9.40;8.80;;;;;;;;4359717;27;9609477;-90
2023/05/26 02:37:56;;;;;;;;;8.50;8.00;;;;;;;;3709692;27;19332296;-90
2023/05/26 02:40:21;;;;;;;;;7.00;7.00;;;;;;;;4519103;27;6417624;-90
2023/05/26 02:42:46;;;;;;;;;14.00;11.00;;;;;;;;5082845;27;45398;-90
2023/05/26 02:45:11;;;;;;;;;11.67;11.67;;;;;;;;5092440;27;45482;-90
2023/05/26 02:47:37;;;;;;;;;8.50;7.00;;;;;;;;4273813;27;12625058;-90
2023/05/26 02:50:02;;;;;;;;;10.00;10.00;;;;;;;;4038918;27;15654948;-90
2023/05/26 02:52:28;;;;;;;;;10.00;8.80;;;;;;;;3790075;27;21113594;-90
2023/05/26 02:54:56;;;;;;;;;11.00;11.00;;;;;;;;4966199;27;6960726;-90
2023/05/26 02:57:22;;;;;;;;;12.33;10.00;;;;;;;;4976591;28;2839355;-90
2023/05/26 02:59:47;;;;;;;;;12.33;9.33;;;;;;;;4691753;27;4925464;-90
2023/05/26 03:02:12;;;;;;;;;5.50;5.50;;;;;;;;3847781;27;22437561;-90
2023/05/26 03:04:38;;;;;;;;;10.33;10.00;;;;;;;;4065030;27;20959976;-90
2023/05/26 03:07:10;;;;;;;;;6.00;6.00;;;;;;;;3048336;27;22003579;-90
2023/05/26 03:09:35;;;;;;;;;9.25;8.50;;;;;;;;4362618;27;8723397;-90
2023/05/26 03:12:00;;;;;;;;;9.00;8.50;;;;;;;;3595572;27;10268627;-90
2023/05/26 03:14:26;;;;;;;;;7.50;7.50;;;;;;;;4853475;27;6128459;-90
2023/05/26 03:16:52;;;;;;;;;12.00;9.67;;;;;;;;4614314;27;13810839;-90
2023/05/26 03:19:17;;;;;;;;;6.33;6.33;;;;;;;;5080831;27;45551;-90
2023/05/26 03:21:42;;;;;;;;;7.00;7.00;;;;;;;;5083131;27;45425;-90
2023/05/26 03:24:08;;;;;;;;;13.00;10.67;;;;;;;;5098437;27;46050;-90
2023/05/26 03:26:33;;;;;;;;;8.33;8.33;;;;;;;;5100005;27;45472;-90
2023/05/26 03:28:58;;;;;;;;;11.33;10.00;;;;;;;;5082034;27;45322;-90
2023/05/26 03:31:39;;;;;;;;;;;;;;;;;;2733081;27;47576700;-90
2023/05/26 03:34:05;;;;;;;;;10.67;9.00;;;;;;;;3601328;27;24682174;-90
2023/05/26 03:36:30;;;;;;;;;11.00;9.50;;;;;;;;3257808;27;35145423;-90
2023/05/26 03:38:55;;;;;;;;;12.00;10.00;;;;;;;;5073829;27;45343;-90
2023/05/26 03:41:21;;;;;;;;;5.67;5.67;;;;;;;;4968180;27;3175500;-90
2023/05/26 03:43:46;;;;;;;;;10.67;9.33;;;;;;;;5088761;27;45227;-90
2023/05/26 03:46:11;;;;;;;;;12.00;8.67;;;;;;;;5100778;27;45384;-90
2023/05/26 03:48:37;;;;;;;;;10.00;7.67;;;;;;;;5101946;27;45518;-90
2023/05/26 03:51:02;;;;;;;;;9.00;9.00;;;;;;;;5096990;27;45231;-90
2023/05/26 03:53:28;;;;;;;;;11.00;9.00;;;;;;;;5098978;27;45279;-90
2023/05/26 03:55:56;;;;;;;;;8.00;8.00;;;;;;;;3832404;27;19553109;-90
2023/05/26 03:58:21;;;;;;;;;10.00;10.00;;;;;;;;4271057;28;15073688;-90
2023/05/26 04:00:47;;;;;;;;;12.25;10.00;;;;;;;;3213598;27;26481126;-90
2023/05/26 04:03:12;;;;;;;;;9.25;9.25;;;;;;;;4295356;27;21257493;-90
2023/05/26 04:05:38;;;;;;;;;10.00;8.00;;;;;;;;5091589;27;45625;-90
2023/05/26 04:08:03;;;;;;;;;9.00;8.00;;;;;;;;5074175;27;47740;-90
2023/05/26 04:10:29;;;;;;;;;13.33;12.67;;;;;;;;5046056;27;1092138;-90
2023/05/26 04:12:54;;;;;;;;;9.00;8.00;;;;;;;;5097313;27;45361;-90
2023/05/26 04:15:19;;;;;;;;;9.67;9.67;;;;;;;;5076738;27;45548;-90
2023/05/26 04:17:45;;;;;;;;;12.67;10.00;;;;;;;;5096465;27;46234;-90
2023/05/26 04:20:10;;;;;;;;;11.33;11.33;;;;;;;;5098330;27;45412;-90
2023/05/26 04:22:36;;;;;;;;;8.67;8.67;;;;;;;;5080949;27;46133;-90
2023/05/26 04:25:01;;;;;;;;;9.67;9.67;;;;;;;;5081302;27;45525;-90
2023/05/26 04:27:27;;;;;;;;;11.00;11.00;;;;;;;;5086399;27;46396;-90
2023/05/26 04:29:52;;;;;;;;;14.50;12.50;;;;;;;;5078429;27;46808;-90
2023/05/26 04:32:23;;;;;;;;;11.50;11.00;;;;;;;;4040252;27;18680893;-90
2023/05/26 04:34:49;;;;;;;;;14.25;10.75;;;;;;;;5079137;27;45535;-90
2023/05/26 04:37:14;;;;;;;;;8.50;8.25;;;;;;;;4943674;27;3974686;-90
2023/05/26 04:39:40;;;;;;;;;12.67;11.67;;;;;;;;4163716;27;12782098;-90
2023/05/26 04:42:05;;;;;;;;;11.00;10.33;;;;;;;;3314822;27;17680033;-90
2023/05/26 04:44:38;;;;;;;;;7.00;5.50;;;;;;;;3583844;27;19444561;-89
2023/05/26 04:47:03;;;;;;;;;13.00;10.50;;;;;;;;3768115;27;25761176;-90
2023/05/26 04:49:29;;;;;;;;;10.00;10.00;;;;;;;;5064634;27;382868;-90
2023/05/26 04:51:58;;;;;;;;;9.75;9.75;;;;;;;;4668852;27;11820991;-90
2023/05/26 04:54:24;;;;;;;;;12.67;10.67;;;;;;;;2025780;27;39989644;-90
2023/05/26 04:56:49;;;;;;;;;7.00;7.00;;;;;;;;4595323;27;11501054;-90
2023/05/26 04:59:17;;;;;;;;;9.67;9.67;;;;;;;;5082504;27;45406;-90
2023/05/26 05:01:42;;;;;;;;;9.00;7.33;;;;;;;;5086632;27;45437;-90
2023/05/26 05:04:07;;;;;;;;;10.00;9.00;;;;;;;;5071237;27;45437;-91
2023/05/26 05:06:33;;;;;;;;;11.00;11.00;;;;;;;;5081681;27;45441;-91
2023/05/26 05:09:02;;;;;;;;;;;;;;;;;;3870098;27;39545229;-90
2023/05/26 05:11:49;;;;;;;;;3.50;3.50;;;;;;;;1222761;27;76905150;-90
2023/05/26 05:14:15;;;;;;;;;13.75;8.25;;;;;;;;4657723;27;11405277;-90
2023/05/26 05:16:41;;;;;;;;;8.67;8.67;;;;;;;;4811095;27;6385395;-90
2023/05/26 05:19:13;;;;;;;;;13.50;9.00;;;;;;;;4704740;27;16150213;-90
2023/05/26 05:21:39;;;;;;;;;7.00;6.33;;;;;;;;4510543;27;16384472;-90
2023/05/26 05:24:04;;;;;;;;;10.25;8.75;;;;;;;;4288793;27;20969290;-90
2023/05/26 05:26:32;;;;;;;;;9.00;8.33;;;;;;;;3616441;27;13058586;-90
2023/05/26 05:29:02;;;;;;;;;12.00;9.50;;;;;;;;4829980;27;9752323;-90
2023/05/26 05:31:36;;;;;;;;;8.80;6.80;;;;;;;;4867353;27;9334959;-90
2023/05/26 05:34:02;;;;;;;;;8.50;7.50;;;;;;;;2561956;27;54104759;-90
2023/05/26 05:36:27;;;;;;;;;8.00;6.00;;;;;;;;1690189;27;22630268;-90
2023/05/26 05:38:53;;;;;;;;;15.33;9.67;;;;;;;;5099880;27;81550;-90
2023/05/26 05:41:22;;;;;;;;;9.00;9.00;;;;;;;;4618483;27;8428037;-90
2023/05/26 05:43:47;;;;;;;;;10.00;8.00;;;;;;;;5101118;27;45575;-91
2023/05/26 05:46:12;;;;;;;;;7.00;7.00;;;;;;;;5091065;27;45552;-90
2023/05/26 05:48:39;;;;;;;;;7.67;7.67;;;;;;;;5102788;27;45318;-90
2023/05/26 05:51:05;;;;;;;;;8.00;7.00;;;;;;;;5086364;27;45215;-91
2023/05/26 05:53:37;;;;;;;;;10.00;10.00;;;;;;;;3481545;27;16809809;-90
2023/05/26 05:56:05;;;;;;;;;9.00;9.00;;;;;;;;2635429;27;19783696;-90
2023/05/26 05:58:58;;;;;;;;;7.00;7.00;;;;;;;;2754181;27;36208311;-90
2023/05/26 06:01:23;;;;;;;;;9.50;8.00;;;;;;;;3246575;27;17515358;-90
2023/05/26 06:03:48;;;;;;;;;7.33;7.33;;;;;;;;4931929;27;3773303;-90
2023/05/26 06:06:24;;;;;;;;;6.00;6.00;;;;;;;;3940102;27;9243280;-90
2023/05/26 06:08:49;;;;;;;;;11.00;5.67;;;;;;;;4677588;27;8390022;-90
2023/05/26 06:11:15;;;;;;;;;13.33;8.67;;;;;;;;4209045;27;21176230;-90
2023/05/26 06:13:40;;;;;;;;;7.00;7.00;;;;;;;;5074143;27;495694;-90
2023/05/26 06:16:06;;;;;;;;;7.33;7.33;;;;;;;;5085895;27;45507;-90
2023/05/26 06:18:31;;;;;;;;;7.67;6.67;;;;;;;;5037858;27;1254397;-90
2023/05/26 06:21:01;;;;;;;;;6.00;6.00;;;;;;;;4569781;27;7058427;-90
2023/05/26 06:23:26;;;;;;;;;8.50;8.50;;;;;;;;3310172;27;15431557;-90
2023/05/26 06:26:05;;;;;;;;;2.50;2.50;;;;;;;;3965154;27;31680874;-90
2023/05/26 06:28:32;;;;;;;;;7.50;7.50;;;;;;;;3727142;27;16127664;-90
2023/05/26 06:31:06;;;;;;;;;15.50;15.50;;;;;;;;1042733;27;50425113;-88
2023/05/26 06:33:31;;;;;;;;;6.00;5.33;;;;;;;;4800362;27;4292179;-93
2023/05/26 06:35:56;;;;;;;;;6.00;6.00;;;;;;;;5001710;27;1446031;-92
2023/05/26 06:38:24;;;;;;;;;8.33;6.33;;;;;;;;5104048;27;45194;-93
2023/05/26 07:24:47;;;;;;;;;0.50;0.50;;;;;;;;5368288;24;3026486;-92
2023/05/26 07:27:12;;;;;;;;;4.50;4.00;;;;;;;;4050870;30;10107602;-92
2023/05/26 07:29:38;;;;;;;;;7.50;7.50;;;;;;;;4510322;30;5283041;-91
2023/05/26 07:32:03;;;;;;;;;7.00;5.25;;;;;;;;3552771;30;23420063;-92
2023/05/26 07:34:49;;;;;;;;;7.00;5.00;;;;;;;;4633685;30;19046579;-91
2023/05/26 07:37:41;;;;;;;;;11.50;11.50;;;;;;;;940215;30;54555652;-92
2023/05/26 07:40:07;;;;;;;;;5.67;5.33;;;;;;;;2781041;30;14594003;-92
2023/05/26 07:42:33;;;;;;;;;4.33;4.33;;;;;;;;3144578;30;12580514;-91
2023/05/26 07:44:58;;;;;;;;;4.00;4.00;;;;;;;;4610435;30;989913;-92
2023/05/26 07:47:23;;;;;;;;;11.00;7.33;;;;;;;;4704800;30;45355;-91
2023/05/26 07:49:48;;;;;;;;;7.75;6.50;;;;;;;;4674782;30;839078;-91
2023/05/26 07:52:14;;;;;;;;;5.33;4.00;;;;;;;;3696959;30;18856535;-92
2023/05/26 07:54:40;;;;;;;;;5.33;4.00;;;;;;;;2528945;30;20096632;-92
2023/05/26 07:57:05;;;;;;;;;;;;;;;;;;3864435;30;18772614;-92
2023/05/26 07:59:30;;;;;;;;;3.50;3.50;;;;;;;;3582449;30;21736855;-93
2023/05/26 08:01:57;;;;;;;;;6.00;6.00;;;;;;;;3770099;30;11807502;-92
2023/05/26 08:04:22;;;;;;;;;5.25;5.25;;;;;;;;3184953;30;22313382;-92
2023/05/26 08:06:47;;;;;;;;;4.33;4.33;;;;;;;;4043927;30;5391545;-93
2023/05/26 08:09:12;;;;;;;;;7.25;7.25;;;;;;;;3632902;30;13376909;-93
2023/05/26 08:11:38;;;;;;;;;5.00;5.00;;;;;;;;4286651;30;12869478;-92
2023/05/26 08:14:03;;;;;;;;;6.33;5.33;;;;;;;;1044454;30;62366834;-93
2023/05/26 08:16:28;;;;;;;;;6.00;6.00;;;;;;;;2757382;30;50413372;-93
2023/05/26 08:19:00;;;;;;;;;4.75;4.75;;;;;;;;4598500;30;7505964;-93
2023/05/26 08:21:25;;;;;;;;;2.75;2.75;;;;;;;;1771858;30;43284359;-93
2023/05/26 08:23:51;;;;;;;;;5.00;4.67;;;;;;;;3824504;30;13890336;-93
2023/05/26 08:26:16;;;;;;;;;6.00;5.00;;;;;;;;4697790;30;47003;-93
2023/05/26 08:28:43;;;;;;;;;3.00;3.00;;;;;;;;4411522;30;5144020;-93
2023/05/26 08:31:19;;;;;;;;;;;;;;;;;;;;;
2023/05/26 08:33:44;;;;;;;;;4.67;4.67;;;;;;;;2102596;30;29344679;-93
2023/05/26 08:36:10;;;;;;;;;5.00;4.00;;;;;;;;3828174;30;14914680;-93
2023/05/26 08:38:35;;;;;;;;;5.00;5.00;;;;;;;;4704210;30;45161;-93
2023/05/26 08:41:03;;;;;;;;;4.00;4.00;;;;;;;;3017328;30;19605929;-93
2023/05/26 08:43:42;;;;;;;;;7.80;5.80;;;;;;;;4369243;30;3173054;-93
2023/05/26 08:46:08;;;;;;;;;4.33;3.33;;;;;;;;4105567;30;4221421;-93
2023/05/26 08:48:34;;;;;;;;;4.00;4.00;;;;;;;;4704317;30;46381;-93
2023/05/26 08:51:00;;;;;;;;;4.67;4.67;;;;;;;;4573906;30;977755;-93
2023/05/26 08:53:27;;;;;;;;;4.17;4.17;;;;;;;;3683895;30;10872483;-93
2023/05/26 08:55:52;;;;;;;;;5.50;4.00;;;;;;;;2736380;30;10545850;-93
2023/05/26 08:58:20;;;;;;;;;6.50;3.50;;;;;;;;2737942;30;13357662;-93
2023/05/26 09:01:06;;;;;;;;;;;;;;;;;;2552367;30;72777292;-94
2023/05/26 09:03:31;;;;;;;;;12.50;9.00;;;;;;;;2959023;30;24628196;-93
2023/05/26 09:05:57;;;;;;;;;3.00;3.00;;;;;;;;2110267;30;17977320;-93
2023/05/26 09:08:24;;;;;;;;;5.00;3.33;;;;;;;;3276942;30;17440629;-93
2023/05/26 09:10:50;;;;;;;;;3.00;3.00;;;;;;;;4678768;30;954321;-93
2023/05/26 09:13:17;;;;;;;;;4.00;3.00;;;;;;;;4482517;30;5257396;-94
2023/05/26 09:15:43;;;;;;;;;4.67;4.67;;;;;;;;4710736;30;45315;-93
2023/05/26 09:18:10;;;;;;;;;5.00;3.00;;;;;;;;4272255;30;7349510;-94
2023/05/26 09:20:42;;;;;;;;;5.25;4.00;;;;;;;;4335494;30;3202421;-93
2023/05/26 09:23:08;;;;;;;;;2.00;2.00;;;;;;;;3066165;30;20421573;-93
2023/05/26 09:25:34;;;;;;;;;4.00;4.00;;;;;;;;4533524;30;3125438;-92
2023/05/26 09:28:03;;;;;;;;;3.50;3.50;;;;;;;;4704361;30;45320;-93
2023/05/26 09:30:33;;;;;;;;;3.33;3.33;;;;;;;;4707729;30;45165;-94
2023/05/26 09:32:59;;;;;;;;;4.33;4.33;;;;;;;;4236796;30;5138101;-92
2023/05/26 09:35:24;;;;;;;;;5.00;3.00;;;;;;;;3887809;30;8286996;-93
2023/05/26 09:37:54;;;;;;;;;6.00;5.00;;;;;;;;3198474;30;12789582;-94
2023/05/26 09:40:20;;;;;;;;;4.50;3.50;;;;;;;;4236971;30;13771329;-92
2023/05/26 09:42:47;;;;;;;;;6.00;5.00;;;;;;;;4702835;30;312377;-93
2023/05/26 09:45:12;;;;;;;;;2.00;2.00;;;;;;;;4714660;30;28527;-92
2023/05/26 09:47:38;;;;;;;;;4.67;4.67;;;;;;;;4718095;30;28390;-92
2023/05/26 09:50:06;;;;;;;;;4.00;4.00;;;;;;;;4703205;30;29092;-92
2023/05/26 09:52:35;;;;;;;;;3.00;3.00;;;;;;;;4598735;30;880717;-93
2023/05/26 09:55:01;;;;;;;;;3.67;3.00;;;;;;;;4694529;30;45532;-92
2023/05/26 09:57:28;;;;;;;;;1.00;1.00;;;;;;;;3976215;30;13713956;-92
2023/05/26 09:59:55;;;;;;;;;3.00;3.00;;;;;;;;3429244;30;39081085;-92
2023/05/26 10:02:21;;;;;;;;;3.67;3.67;;;;;;;;4704025;30;30705;-92
2023/05/26 10:04:47;;;;;;;;;6.00;3.00;;;;;;;;4695339;30;437935;-92
2023/05/26 10:07:15;;;;;;;;;3.50;3.50;;;;;;;;3573988;30;13852587;-93
2023/05/26 10:09:50;;;;;;;;;4.50;4.50;;;;;;;;3956770;30;11418299;-92
2023/05/26 10:12:17;;;;;;;;;3.00;3.00;;;;;;;;4478331;30;6443969;-92
2023/05/26 10:14:42;;;;;;;;;3.75;3.75;;;;;;;;4713772;30;28551;-92
2023/05/26 10:17:08;;;;;;;;;3.33;3.33;;;;;;;;4712173;30;578966;-91
2023/05/26 10:19:34;;;;;;;;;3.67;3.67;;;;;;;;3766691;30;28300391;-93
2023/05/26 10:22:03;;;;;;;;;3.33;3.33;;;;;;;;4709772;30;160204;-92
2023/05/26 10:24:39;;;;;;;;;2.00;2.00;;;;;;;;4196785;30;6143058;-91
2023/05/26 10:27:14;;;;;;;;;3.00;3.00;;;;;;;;1624567;30;35092234;-92
2023/05/26 10:29:41;;;;;;;;;;;;;;;;;;973753;30;35647502;-92
2023/05/26 10:32:06;;;;;;;;;4.00;3.33;;;;;;;;4737990;30;13972;-92
2023/05/26 10:34:43;;;;;;;;;5.00;4.00;;;;;;;;4728812;30;27814;-92
2023/05/26 10:37:21;;;;;;;;;;;;;;;;;;2717697;30;72934793;-90
2023/05/26 10:39:46;;;;;;;;;3.00;3.00;;;;;;;;4663188;30;1183512;-90
2023/05/26 10:42:18;;;;;;;;;3.00;3.00;;;;;;;;4707746;30;28910;-90
2023/05/26 10:44:45;;;;;;;;;3.33;3.33;;;;;;;;4334615;30;4892892;-90
2023/05/26 10:47:15;;;;;;;;;4.67;4.67;;;;;;;;2718506;30;18331951;-90
2023/05/26 10:49:40;;;;;;;;;6.00;5.00;;;;;;;;4549273;30;5172996;-92
2023/05/26 10:52:13;;;;;;;;;3.00;3.00;;;;;;;;4682735;30;954188;-93
2023/05/26 10:54:38;;;;;;;;;5.00;3.33;;;;;;;;4718010;30;45434;-93
2023/05/26 10:57:26;;;;;;;;;2.00;2.00;;;;;;;;4717769;30;28549;-93
2023/05/26 10:59:52;;;;;;;;;2.00;2.00;;;;;;;;4576181;30;2849748;-93
2023/05/26 11:02:20;;;;;;;;;5.25;3.50;;;;;;;;4239412;30;5745807;-93
2023/05/26 11:04:46;;;;;;;;;3.00;3.00;;;;;;;;4658084;30;1823999;-92
2023/05/26 11:07:21;;;;;;;;;5.00;3.00;;;;;;;;4696459;30;288554;-92
2023/05/26 11:10:02;;;;;;;;;4.00;3.00;;;;;;;;4716242;30;63258;-92
2023/05/26 11:12:47;;;;;;;;;2.00;2.00;;;;;;;;4519191;30;3137977;-89
2023/05/26 11:15:28;;;;;;;;;2.00;2.00;;;;;;;;4706299;30;296304;-90
2023/05/26 11:18:01;;;;;;;;;3.50;3.50;;;;;;;;4600467;30;1372999;-90
2023/05/26 11:28:28;;;;;;;;;;;;;;;;;;;;;
2023/05/26 11:30:54;;;;;;;;;2.00;2.00;;;;;;;;3923247;30;6336763;-90
2023/05/26 11:33:20;;;;;;;;;4.50;4.00;;;;;;;;4376833;30;7879626;-90
2023/05/26 11:35:45;;;;;;;;;4.67;4.67;;;;;;;;1260397;30;36053894;-90
2023/05/26 11:38:10;;;;;;;;;2.00;2.00;;;;;;;;2918227;30;21524225;-90
2023/05/26 11:51:23;;;;;;;;;4.00;3.00;;;;;;;;2800307;24;16799387;-95
2023/05/26 11:53:55;;;;;;;;;5.00;4.67;;;;;;;;3817563;30;12321721;-95
2023/05/26 11:56:39;;;;;;;;;2.75;2.75;;;;;;;;3859682;30;6343281;-95
2023/05/26 11:59:04;;;;;;;;;3.00;3.00;;;;;;;;4017816;30;17044445;-90
2023/05/26 12:01:39;;;;;;;;;4.00;4.00;;;;;;;;4436605;30;12036711;-90
2023/05/26 12:04:05;;;;;;;;;3.00;3.00;;;;;;;;2009001;30;24892524;-90
2023/05/26 12:11:32;;;;;;;;;5.00;5.00;;;;;;;;4041004;29;10746505;-94
2023/05/26 12:16:47;;;;;;;;;5.00;2.00;;;;;;;;3234353;30;23786365;-94
2023/05/26 12:19:42;;;;;;;;;;;;;;;;;;3244768;30;61227546;-94
2023/05/26 12:22:07;;;;;;;;;3.00;3.00;;;;;;;;4683298;30;45513;-94
2023/05/26 12:24:34;;;;;;;;;2.33;2.33;;;;;;;;4702720;30;45709;-95
2023/05/26 12:27:34;;;;;;;;;3.25;3.25;;;;;;;;4703604;30;45603;-93
2023/05/26 12:30:38;;;;;;;;;;;;;;;;;;;;;
2023/05/26 12:33:16;;;;;;;;;1.50;1.50;;;;;;;;1512834;30;50912486;-95
2023/05/26 12:36:15;;;;;;;;;;;;;;;;;;;;;
2023/05/26 12:39:21;;;;;;;;;;;;;;;;;;2207618;30;30633171;-95
2023/05/26 12:41:50;;;;;;;;;3.00;3.00;;;;;;;;473037;30;51778324;-96
2023/05/26 12:44:15;;;;;;;;;4.00;3.75;;;;;;;;1000140;30;55489265;-89
2023/05/26 12:46:44;;;;;;;;;6.00;5.33;;;;;;;;4511486;30;3353575;-89
2023/05/26 12:49:10;;;;;;;;;4.33;3.00;;;;;;;;4703948;30;28707;-91
2023/05/26 12:51:37;;;;;;;;;2.00;2.00;;;;;;;;4702625;30;29622;-89
2023/05/26 12:54:02;;;;;;;;;3.00;3.00;;;;;;;;2852007;30;37860897;-89
2023/05/26 12:56:36;;;;;;;;;0.00;0.00;;;;;;;;740137;30;82635750;-90
2023/05/26 12:59:02;;;;;;;;;2.00;1.67;;;;;;;;2737005;30;34262046;-90
2023/05/26 13:01:27;;;;;;;;;3.33;3.33;;;;;;;;4693295;30;45592;-90
2023/05/26 13:03:53;;;;;;;;;4.00;4.00;;;;;;;;4702121;30;44803;-90
2023/05/26 13:06:18;;;;;;;;;6.33;4.00;;;;;;;;4514518;30;2589914;-89
2023/05/26 13:08:44;;;;;;;;;4.00;4.00;;;;;;;;3174481;30;16911194;-89
2023/05/26 13:11:10;;;;;;;;;6.00;4.00;;;;;;;;4725377;30;8868;-90
2023/05/26 13:13:36;;;;;;;;;4.00;4.00;;;;;;;;4735512;30;9702;-90
2023/05/26 13:16:01;;;;;;;;;3.75;3.75;;;;;;;;4736517;30;10717;-89
2023/05/26 13:18:44;;;;;;;;;;;;;;;;;;1607739;30;43875876;-89
2023/05/26 13:21:10;;;;;;;;;4.00;4.00;;;;;;;;3924286;30;24149204;-89
2023/05/26 13:23:39;;;;;;;;;;;;;;;;;;1065304;30;109639534;-90
2023/05/26 13:26:18;;;;;;;;;1.00;1.00;;;;;;;;3263800;30;43158662;-90
2023/05/26 13:29:35;;;;;;;;;3.00;3.00;;;;;;;;316251;30;68659157;-90
2023/05/26 13:32:00;;;;;;;;;2.33;2.33;;;;;;;;3388703;30;19193105;-90
2023/05/26 13:36:18;;;;;;;;;;;;;;;;;;1085811;30;121339374;-89
2023/05/26 13:38:44;;;;;;;;;4.75;4.75;;;;;;;;516017;30;105518513;-89
2023/05/26 13:41:12;;;;;;;;;3.67;3.67;;;;;;;;3292293;30;11811141;-90
2023/05/26 13:43:37;;;;;;;;;4.00;4.00;;;;;;;;3647128;30;18946958;-89
2023/05/26 13:46:49;;;;;;;;;4.50;4.50;;;;;;;;4141763;30;58037290;-89
2023/05/26 13:49:17;;;;;;;;;4.00;4.00;;;;;;;;2307058;30;37357359;-89
2023/05/26 13:51:42;;;;;;;;;9.00;8.00;;;;;;;;3993201;30;12333702;-90
2023/05/26 13:57:08;;;;;;;;;7.00;7.00;;;;;;;;4445324;30;128038645;-90
2023/05/26 13:59:34;;;;;;;;;4.00;3.00;;;;;;;;395838;30;59342386;-90
2023/05/26 14:02:00;;;;;;;;;;;;;;;;;;1049619;30;39957090;-90
2023/05/26 14:04:28;;;;;;;;;4.33;4.33;;;;;;;;1270965;30;83978364;-90
2023/05/26 14:06:53;;;;;;;;;7.50;4.50;;;;;;;;4630791;30;1480574;-89
2023/05/26 14:09:18;;;;;;;;;5.00;5.00;;;;;;;;4495146;30;4350246;-89
2023/05/26 14:11:43;;;;;;;;;8.33;4.33;;;;;;;;4696953;30;45269;-89
2023/05/26 14:14:09;;;;;;;;;4.50;4.50;;;;;;;;2561816;30;52734942;-90
2023/05/26 14:16:37;;;;;;;;;4.67;4.33;;;;;;;;3867548;30;25386418;-89
2023/05/26 14:19:03;;;;;;;;;6.00;5.00;;;;;;;;4685604;30;45386;-90
2023/05/26 14:21:28;;;;;;;;;7.33;7.33;;;;;;;;4671316;30;45480;-89
2023/05/26 14:23:54;;;;;;;;;7.00;4.67;;;;;;;;4702804;30;46287;-89
2023/05/26 14:26:19;;;;;;;;;2.33;2.33;;;;;;;;4672245;30;45404;-90
2023/05/26 14:28:44;;;;;;;;;3.33;3.33;;;;;;;;4677380;30;45353;-90
2023/05/26 14:31:09;;;;;;;;;7.33;7.33;;;;;;;;4678322;30;45464;-90
2023/05/26 14:33:35;;;;;;;;;7.67;7.67;;;;;;;;4686278;30;47821;-90
2023/05/26 14:36:00;;;;;;;;;5.33;5.33;;;;;;;;4688933;30;45446;-90
2023/05/26 14:38:25;;;;;;;;;6.33;6.33;;;;;;;;4671136;30;45513;-90
2023/05/26 14:40:50;;;;;;;;;5.00;3.33;;;;;;;;3944727;30;21137792;-89
2023/05/26 14:43:40;;;;;;;;;;;;;;;;;;1464504;30;92732127;-89
2023/05/26 14:46:06;;;;;;;;;9.33;6.00;;;;;;;;298328;30;107634911;-89
2023/05/26 14:49:09;;;;;;;;;;;;;;;;;;693106;30;65220187;-89
2023/05/26 14:51:35;;;;;;;;;5.00;5.00;;;;;;;;1346331;30;47178570;-89
2023/05/26 14:54:00;;;;;;;;;5.00;5.00;;;;;;;;1780018;30;60056590;-90
2023/05/26 14:56:42;;;;;;;;;9.50;9.50;;;;;;;;3058139;30;31031016;-90
2023/05/26 14:59:07;;;;;;;;;7.50;6.50;;;;;;;;2067127;30;28940338;-89
2023/05/26 15:02:11;;;;;;;;;8.50;4.00;;;;;;;;1857061;30;27091115;-90
2023/05/26 15:04:42;;;;;;;;;4.00;4.00;;;;;;;;1138198;30;36904798;-89
2023/05/26 15:07:11;;;;;;;;;4.00;4.00;;;;;;;;2032031;30;39666894;-90
2023/05/26 15:09:36;;;;;;;;;6.00;6.00;;;;;;;;3460174;30;15353139;-90
2023/05/26 15:12:11;;;;;;;;;2.00;2.00;;;;;;;;3707427;30;8684040;-90
2023/05/26 15:14:36;;;;;;;;;4.75;4.75;;;;;;;;3619115;30;22001030;-90
2023/05/26 15:17:01;;;;;;;;;6.33;4.00;;;;;;;;4686938;30;142970;-90
2023/05/26 15:19:27;;;;;;;;;8.67;8.67;;;;;;;;4646724;30;1782726;-89
2023/05/26 15:21:52;;;;;;;;;5.33;5.33;;;;;;;;4705467;30;45598;-89
2023/05/26 15:24:18;;;;;;;;;4.00;4.00;;;;;;;;4702643;30;45455;-89
2023/05/26 15:26:43;;;;;;;;;;;;;;;;;;3492571;30;25665732;-89
2023/05/26 15:29:08;;;;;;;;;6.00;4.00;;;;;;;;3942816;30;10801143;-90
2023/05/26 15:31:34;;;;;;;;;3.67;3.00;;;;;;;;4669664;30;1122091;-90
2023/05/26 15:33:59;;;;;;;;;4.00;3.67;;;;;;;;4690392;30;198273;-90
2023/05/26 15:36:24;;;;;;;;;4.00;4.00;;;;;;;;4584670;30;2253763;-89
2023/05/26 15:38:52;;;;;;;;;6.50;6.00;;;;;;;;2891860;30;21632235;-90
2023/05/26 15:41:22;;;;;;;;;4.75;4.75;;;;;;;;3044924;30;20357286;-89
2023/05/26 15:43:47;;;;;;;;;5.00;5.00;;;;;;;;2493100;30;20814685;-90
2023/05/26 15:46:13;;;;;;;;;3.33;3.33;;;;;;;;4705603;30;45289;-90
2023/05/26 15:48:40;;;;;;;;;3.00;3.00;;;;;;;;4316476;30;6089730;-90
2023/05/26 15:51:20;;;;;;;;;5.50;4.50;;;;;;;;2901905;30;22174464;-89
2023/05/26 15:53:45;;;;;;;;;4.50;4.50;;;;;;;;2789718;30;27860351;-89
2023/05/26 15:56:10;;;;;;;;;4.50;4.50;;;;;;;;2819362;30;15596750;-89
2023/05/26 15:58:35;;;;;;;;;3.00;3.00;;;;;;;;4218713;30;7826970;-90
2023/05/26 16:01:01;;;;;;;;;1.50;1.50;;;;;;;;3916322;30;9731637;-90
2023/05/26 16:05:23;;;;;;;;;;;;;;;;;;2226689;30;53846795;-89
2023/05/26 16:07:48;;;;;;;;;5.25;5.25;;;;;;;;3299716;30;20817324;-90
2023/05/26 16:10:13;;;;;;;;;5.00;4.25;;;;;;;;1227900;30;46761580;-90